Time;durP1;ratioP1;P1;durP2;ratioP2;P2;SDS_P1;SDS_P2;PMS_P1;PMS_P2;Temp;Humidity;BMP_temperature;BMP_pressure;BME280_temperature;BME280_humidity;BME280_pressure;Samples;Min_cycle;Max_cycle;Signal;HPM_P1;HPM_P2
2021/11/29 00:01:10;;;;;;;45.85;26.05;;;;;;;2.17;100.00;98349.65;1611206;87;26121;-79
2021/11/29 00:03:37;;;;;;;45.73;25.88;;;;;;;2.18;100.00;98347.30;1603020;87;26882;-78
2021/11/29 00:06:05;;;;;;;43.73;25.70;;;;;;;2.18;100.00;98354.44;1615542;87;25985;-78
2021/11/29 00:08:32;;;;;;;47.85;24.85;;;;;;;2.16;100.00;98341.39;1625931;86;28413;-79
2021/11/29 00:10:59;;;;;;;43.42;25.37;;;;;;;2.15;100.00;98346.87;1600576;86;25827;-78
2021/11/29 00:13:26;;;;;;;47.33;26.12;;;;;;;2.16;100.00;98344.56;1598085;86;25948;-79
2021/11/29 00:15:53;;;;;;;43.60;23.62;;;;;;;2.17;100.00;98340.41;1622368;86;26068;-78
2021/11/29 00:18:20;;;;;;;42.67;23.57;;;;;;;2.16;100.00;98338.75;1614480;88;25457;-79
2021/11/29 00:20:48;;;;;;;44.00;24.05;;;;;;;2.17;100.00;98332.98;1586347;88;27987;-79
2021/11/29 00:23:15;;;;;;;43.15;25.52;;;;;;;2.18;100.00;98335.95;1577566;87;26010;-79
2021/11/29 00:25:44;;;;;;;46.25;26.10;;;;;;;2.18;100.00;98334.63;1568046;87;25416;-80
2021/11/29 00:28:12;;;;;;;42.60;24.23;;;;;;;2.18;100.00;98333.31;1619130;87;26218;-79
2021/11/29 00:30:40;;;;;;;44.70;25.20;;;;;;;2.16;100.00;98332.68;1605962;87;25915;-79
2021/11/29 00:33:08;;;;;;;40.23;22.90;;;;;;;2.15;100.00;98337.63;1577347;87;27689;-80
2021/11/29 00:35:37;;;;;;;42.45;24.82;;;;;;;2.14;100.00;98339.45;1593052;88;25964;-78
2021/11/29 00:38:06;;;;;;;39.20;23.67;;;;;;;2.15;100.00;98345.55;1582834;89;25788;-79
2021/11/29 00:40:33;;;;;;;43.75;25.70;;;;;;;2.17;100.00;98348.33;1564004;87;26085;-79
2021/11/29 00:43:00;;;;;;;44.83;24.35;;;;;;;2.20;100.00;98339.22;1574211;87;25926;-79
2021/11/29 00:45:28;;;;;;;44.20;25.55;;;;;;;2.22;100.00;98342.48;1623332;87;27450;-79
2021/11/29 00:47:56;;;;;;;43.78;24.32;;;;;;;2.20;99.96;98333.41;1620369;87;25916;-79
2021/11/29 00:50:24;;;;;;;44.45;24.30;;;;;;;2.18;99.91;98331.98;1594803;87;25801;-79
2021/11/29 00:52:51;;;;;;;44.20;23.75;;;;;;;2.15;99.81;98330.53;1548912;87;26488;-79
2021/11/29 00:55:19;;;;;;;36.17;23.75;;;;;;;2.17;99.98;98329.84;1607835;89;26138;-78
2021/11/29 00:57:47;;;;;;;43.13;24.85;;;;;;;2.18;100.00;98327.50;1622114;87;28231;-79
2021/11/29 01:00:20;;;;;;;44.70;24.90;;;;;;;2.21;100.00;98328.95;1568484;88;25847;-79
2021/11/29 01:02:48;;;;;;;47.33;25.92;;;;;;;2.20;99.89;98329.45;1545387;88;25976;-79
2021/11/29 01:05:16;;;;;;;43.20;24.67;;;;;;;2.19;99.91;98331.79;1631950;86;26043;-78
2021/11/29 01:07:43;;;;;;;42.48;24.60;;;;;;;2.21;99.87;98333.73;1629259;85;26714;-79
2021/11/29 01:10:13;;;;;;;47.00;25.10;;;;;;;2.20;99.66;98336.05;1547908;88;27614;-78
2021/11/29 01:12:40;;;;;;;44.70;24.57;;;;;;;2.18;99.58;98335.42;1589561;87;26613;-79
2021/11/29 01:15:12;;;;;;;43.73;24.50;;;;;;;2.18;99.62;98334.09;1606805;88;25891;-79
2021/11/29 01:17:39;;;;;;;46.20;25.50;;;;;;;2.19;99.53;98331.79;1608750;88;26136;-79
2021/11/29 01:20:09;;;;;;;43.48;24.67;;;;;;;2.17;99.53;98327.20;1578578;88;26003;-79
2021/11/29 01:22:38;;;;;;;40.43;22.42;;;;;;;2.17;99.47;98327.20;1573460;88;28028;-79
2021/11/29 01:25:06;;;;;;;38.33;22.10;;;;;;;2.16;99.42;98323.44;1627965;87;25768;-79
2021/11/29 01:27:33;;;;;;;42.53;23.42;;;;;;;2.11;99.35;98323.17;1619434;87;26604;-78
2021/11/29 01:30:00;;;;;;;40.08;23.20;;;;;;;2.07;99.37;98330.66;1591806;87;26184;-78
2021/11/29 01:32:28;;;;;;;41.80;23.52;;;;;;;2.10;99.51;98321.52;1628146;85;25585;-78
2021/11/29 01:34:55;;;;;;;37.33;21.52;;;;;;;2.09;99.45;98315.95;1615922;87;28142;-79
2021/11/29 01:37:22;;;;;;;36.63;20.80;;;;;;;2.09;99.41;98315.95;1580572;87;25893;-79
2021/11/29 01:39:49;;;;;;;40.20;19.85;;;;;;;2.07;99.37;98317.95;1594521;87;26584;-78
2021/11/29 01:42:16;;;;;;;41.65;22.55;;;;;;;2.07;99.47;98312.19;1545140;88;26676;-78
2021/11/29 01:44:43;;;;;;;39.70;22.02;;;;;;;2.05;99.34;98304.92;1632219;87;25801;-79
2021/11/29 01:47:10;;;;;;;36.77;18.60;;;;;;;2.05;99.48;98298.84;1606327;88;27526;-79
2021/11/29 01:49:37;;;;;;;35.10;18.62;;;;;;;2.05;99.40;98309.41;1577370;86;25882;-79
2021/11/29 01:52:05;;;;;;;37.55;20.17;;;;;;;2.00;99.33;98309.97;1592030;86;25839;-78
2021/11/29 01:54:32;;;;;;;39.00;20.12;;;;;;;1.97;99.37;98310.83;1626392;86;26112;-79
2021/11/29 01:56:59;;;;;;;35.28;20.50;;;;;;;1.95;99.42;98306.23;1618738;86;25987;-79
2021/11/29 01:59:26;;;;;;;36.73;20.25;;;;;;;1.92;99.38;98304.82;1598066;86;27583;-79
2021/11/29 02:01:54;;;;;;;39.35;20.70;;;;;;;1.91;99.45;98300.53;1592272;86;26622;-80
2021/11/29 02:04:22;;;;;;;35.15;17.95;;;;;;;1.88;99.53;98308.81;1633066;86;26056;-78
2021/11/29 02:06:49;;;;;;;34.63;18.77;;;;;;;1.87;99.57;98315.11;1639147;86;26868;-78
2021/11/29 02:09:16;;;;;;;37.23;19.10;;;;;;;1.85;99.61;98317.62;1564405;86;26003;-78
2021/11/29 02:11:43;;;;;;;33.67;19.17;;;;;;;1.85;99.75;98322.41;1578563;88;27645;-78
2021/11/29 02:14:10;;;;;;;35.33;17.75;;;;;;;1.87;99.72;98327.48;1605250;88;26571;-78
2021/11/29 02:16:38;;;;;;;31.40;16.52;;;;;;;1.89;99.75;98330.75;1627949;86;25955;-78
2021/11/29 02:19:07;;;;;;;34.80;19.77;;;;;;;1.89;99.77;98336.86;1583211;87;26189;-78
2021/11/29 02:21:35;;;;;;;29.50;17.25;;;;;;;1.88;99.67;98328.61;1581998;87;25902;-79
2021/11/29 02:24:06;;;;;;;37.03;19.45;;;;;;;1.90;99.74;98324.48;1604075;87;27213;-78
2021/11/29 02:26:37;;;;;;;30.15;16.87;;;;;;;1.89;99.64;98317.55;1616894;87;26104;-79
2021/11/29 02:29:12;;;;;;;33.98;18.05;;;;;;;1.85;99.56;98311.84;1566852;88;25921;-79
2021/11/29 02:31:43;;;;;;;30.77;18.05;;;;;;;1.80;99.57;98310.25;1568510;88;26803;-79
2021/11/29 02:34:19;;;;;;;;;;;;;;;1.78;99.63;98318.86;1620943;87;25789;-78
2021/11/29 02:36:47;;;;;;;27.85;15.50;;;;;;;1.79;99.72;98328.92;1608663;87;27475;-79
2021/11/29 02:39:15;;;;;;;29.57;16.05;;;;;;;1.77;99.86;98321.20;1617841;87;26110;-79
2021/11/29 02:41:45;;;;;;;31.68;16.75;;;;;;;1.76;99.71;98321.37;1584069;89;25938;-79
2021/11/29 02:44:12;;;;;;;34.67;18.02;;;;;;;1.75;99.88;98316.62;1602969;87;26180;-79
2021/11/29 02:46:42;;;;;;;35.33;18.90;;;;;;;1.75;99.79;98311.83;1611268;88;26660;-79
2021/11/29 02:49:12;;;;;;;30.45;17.12;;;;;;;1.73;99.70;98305.92;1609569;88;27565;-78
2021/11/29 02:51:45;;;;;;;32.10;17.65;;;;;;;1.73;99.78;98301.47;1614393;87;26049;-78
2021/11/29 02:54:23;;;;;;;33.40;16.32;;;;;;;1.71;99.79;98302.13;1603490;88;25864;-79
2021/11/29 02:56:53;;;;;;;28.80;16.35;;;;;;;1.71;99.84;98306.09;1595281;87;26724;-78
2021/11/29 02:59:24;;;;;;;28.57;15.72;;;;;;;1.72;99.86;98314.83;1605281;89;25400;-78
2021/11/29 03:01:53;;;;;;;;;;;;;;;1.70;99.87;98312.88;1560664;89;27241;-78
2021/11/29 03:04:24;;;;;;;25.62;14.03;;;;;;;1.71;99.96;98319.28;1626633;86;25911;-78
2021/11/29 03:06:51;;;;;;;24.32;13.72;;;;;;;1.69;99.94;98323.14;1576474;87;26163;-78
2021/11/29 03:09:19;;;;;;;21.82;12.98;;;;;;;1.68;100.00;98317.03;1538615;88;26894;-79
2021/11/29 03:11:47;;;;;;;26.55;13.80;;;;;;;1.71;100.00;98326.41;1622801;87;26050;-77
2021/11/29 03:14:14;;;;;;;24.70;14.20;;;;;;;1.68;99.99;98319.67;1602533;89;28294;-79
2021/11/29 03:16:41;;;;;;;24.60;13.85;;;;;;;1.68;99.96;98314.89;1554316;87;25966;-78
2021/11/29 03:19:09;;;;;;;23.27;13.40;;;;;;;1.67;99.90;98309.31;1550363;87;25827;-79
2021/11/29 03:21:36;;;;;;;24.18;13.98;;;;;;;1.67;100.00;98306.67;1634111;87;26871;-79
2021/11/29 03:24:07;;;;;;;24.05;14.80;;;;;;;1.65;99.86;98311.33;1574346;88;25854;-78
2021/11/29 03:26:35;;;;;;;26.17;15.10;;;;;;;1.65;100.00;98322.67;1585787;89;27513;-79
2021/11/29 03:29:10;;;;;;;30.57;15.08;;;;;;;1.67;100.00;98311.95;1580501;88;25840;-79
2021/11/29 03:31:39;;;;;;;27.40;16.57;;;;;;;1.64;100.00;98310.99;1614303;88;26088;-78
2021/11/29 03:34:12;;;;;;;26.55;15.25;;;;;;;1.61;100.00;98294.20;1611850;88;26180;-78
2021/11/29 03:36:43;;;;;;;25.20;14.45;;;;;;;1.60;100.00;98296.05;1592130;88;26075;-79
2021/11/29 03:39:15;;;;;;;24.05;14.30;;;;;;;1.58;100.00;98296.73;1552064;87;28175;-78
2021/11/29 03:41:44;;;;;;;26.02;14.18;;;;;;;1.59;100.00;98290.44;1619644;87;26005;-79
2021/11/29 03:44:12;;;;;;;24.32;13.00;;;;;;;1.58;100.00;98291.45;1616061;87;25372;-79
2021/11/29 03:46:41;;;;;;;22.73;14.50;;;;;;;1.58;100.00;98291.45;1602306;87;26842;-79
2021/11/29 03:49:08;;;;;;;25.15;14.60;;;;;;;1.56;100.00;98292.94;1550639;87;25920;-79
2021/11/29 03:51:36;;;;;;;25.30;13.85;;;;;;;1.56;100.00;98296.11;1598352;87;27635;-79
2021/11/29 03:54:03;;;;;;;27.82;16.12;;;;;;;1.57;100.00;98303.00;1598836;87;26343;-79
2021/11/29 03:56:30;;;;;;;25.95;15.48;;;;;;;1.57;100.00;98305.64;1543588;87;25921;-79
2021/11/29 03:58:57;;;;;;;27.62;16.87;;;;;;;1.60;100.00;98311.05;1574740;86;26263;-79
2021/11/29 04:01:24;;;;;;;31.35;16.17;;;;;;;1.60;100.00;98323.75;1637683;86;25755;-79
2021/11/29 04:03:51;;;;;;;25.75;14.25;;;;;;;1.62;100.00;98331.47;1604101;89;28323;-79
2021/11/29 04:06:18;;;;;;;26.02;15.72;;;;;;;1.62;100.00;98324.37;1595665;87;25833;-79
2021/11/29 04:08:46;;;;;;;28.92;16.02;;;;;;;1.62;100.00;98318.28;1600270;88;25951;-79
2021/11/29 04:11:13;;;;;;;27.60;15.28;;;;;;;1.58;100.00;98318.63;1592981;87;26151;-79
2021/11/29 04:13:42;;;;;;;28.50;16.05;;;;;;;1.58;100.00;98312.56;1594483;87;26121;-79
2021/11/29 04:16:09;;;;;;;27.32;16.25;;;;;;;1.62;100.00;98314.32;1586531;88;28204;-79
2021/11/29 04:18:36;;;;;;;27.32;16.60;;;;;;;1.63;100.00;98311.48;1631801;86;25972;-79
2021/11/29 04:21:05;;;;;;;26.82;14.60;;;;;;;1.63;100.00;98309.34;1615106;87;26654;-79
2021/11/29 04:23:32;;;;;;;32.93;17.82;;;;;;;1.62;100.00;98314.32;1566719;88;26127;-79
2021/11/29 04:26:01;;;;;;;25.43;15.23;;;;;;;1.58;100.00;98318.34;1599825;86;25805;-79
2021/11/29 04:28:29;;;;;;;29.65;16.27;;;;;;;1.58;100.00;98322.30;1631742;86;27570;-79
2021/11/29 04:30:57;;;;;;;29.18;17.23;;;;;;;1.55;100.00;98324.30;1591697;87;25956;-78
2021/11/29 04:33:24;;;;;;;27.67;17.27;;;;;;;1.58;100.00;98317.84;1600093;88;26523;-79
2021/11/29 04:35:51;;;;;;;27.27;16.67;;;;;;;1.58;100.00;98323.91;1617544;86;26811;-78
2021/11/29 04:38:18;;;;;;;28.85;16.97;;;;;;;1.58;100.00;98328.89;1632116;86;26103;-79
2021/11/29 04:40:45;;;;;;;24.63;15.45;;;;;;;1.60;100.00;98330.34;1610962;87;27500;-79
2021/11/29 04:43:12;;;;;;;23.62;15.88;;;;;;;1.62;100.00;98333.61;1596513;86;26006;-79
2021/11/29 04:45:39;;;;;;;28.02;16.95;;;;;;;1.58;100.00;98331.03;1579578;86;25943;-79
2021/11/29 04:48:08;;;;;;;29.65;17.45;;;;;;;1.54;100.00;98323.97;1624618;86;54553;-79
2021/11/29 04:50:35;;;;;;;29.67;18.45;;;;;;;1.53;100.00;98328.95;1606246;87;25904;-79
2021/11/29 04:53:05;;;;;;;30.55;17.27;;;;;;;1.51;100.00;98324.84;1576356;86;28796;-79
2021/11/29 04:55:32;;;;;;;29.60;16.73;;;;;;;1.49;100.00;98321.58;1627646;86;25962;-79
2021/11/29 04:57:59;;;;;;;28.52;16.02;;;;;;;1.48;100.00;98313.34;1621782;86;25827;-79
2021/11/29 05:00:26;;;;;;;26.85;16.07;;;;;;;1.45;100.00;98321.11;1632643;86;26204;-79
2021/11/29 05:02:53;;;;;;;28.50;17.32;;;;;;;1.44;100.00;98326.09;1574447;86;26160;-78
2021/11/29 05:05:20;;;;;;;26.25;17.07;;;;;;;1.45;100.00;98328.23;1608248;87;28312;-79
2021/11/29 05:07:47;;;;;;;25.05;15.95;;;;;;;1.48;100.00;98325.20;1615004;86;26303;-78
2021/11/29 05:10:14;;;;;;;26.85;17.77;;;;;;;1.45;100.00;98325.59;1590811;87;25834;-78
2021/11/29 05:12:41;;;;;;;24.20;16.10;;;;;;;1.48;100.00;98331.80;1550000;86;26124;-79
2021/11/29 05:15:10;;;;;;;24.25;14.70;;;;;;;1.48;100.00;98324.71;1636716;86;25698;-79
2021/11/29 05:17:37;;;;;;;26.35;15.50;;;;;;;1.48;100.00;98334.44;1614805;86;27531;-79
2021/11/29 05:20:05;;;;;;;23.90;14.70;;;;;;;1.48;100.00;98336.58;1619252;87;25807;-78
2021/11/29 05:22:32;;;;;;;22.82;15.15;;;;;;;1.46;100.00;98339.91;1595559;87;26304;-78
2021/11/29 05:24:59;;;;;;;22.02;13.75;;;;;;;1.47;100.00;98339.41;1627345;87;26179;-79
2021/11/29 05:27:26;;;;;;;21.10;13.75;;;;;;;1.47;100.00;98336.77;1620532;86;25990;-79
2021/11/29 05:29:53;;;;;;;23.27;14.80;;;;;;;1.44;100.00;98344.55;1639484;86;27568;-78
2021/11/29 05:32:21;;;;;;;22.52;14.83;;;;;;;1.45;100.00;98353.29;1567562;86;25561;-78
2021/11/29 05:34:48;;;;;;;24.60;14.65;;;;;;;1.46;100.00;98359.69;1609768;86;25820;-79
2021/11/29 05:37:15;;;;;;;19.98;13.58;;;;;;;1.49;100.00;98367.25;1608520;86;26224;-79
2021/11/29 05:39:42;;;;;;;22.93;15.35;;;;;;;1.48;100.00;98372.20;1636614;86;25931;-81
2021/11/29 05:42:09;;;;;;;23.00;15.35;;;;;;;1.50;100.00;98368.88;1572377;87;28670;-81
2021/11/29 05:44:36;;;;;;;21.93;14.83;;;;;;;1.51;100.00;98378.93;1594633;86;25896;-78
2021/11/29 05:47:04;;;;;;;24.45;16.70;;;;;;;1.52;100.00;98376.59;1613012;87;25883;-78
2021/11/29 05:49:31;;;;;;;22.00;14.33;;;;;;;1.50;100.00;98387.83;1629527;86;26780;-79
2021/11/29 05:52:00;;;;;;;21.20;14.83;;;;;;;1.53;100.00;98388.80;1576370;87;26128;-79
2021/11/29 05:54:28;;;;;;;23.70;16.52;;;;;;;1.52;100.00;98381.38;1591399;87;27514;-79
2021/11/29 05:56:55;;;;;;;25.72;16.52;;;;;;;1.53;99.99;98385.67;1626840;86;25331;-79
2021/11/29 05:59:22;;;;;;;28.02;16.87;;;;;;;1.54;99.97;98378.05;1612745;86;25922;-79
2021/11/29 06:01:50;;;;;;;23.15;15.23;;;;;;;1.57;99.98;98382.15;1573212;87;26010;-79
2021/11/29 06:04:17;;;;;;;23.83;15.63;;;;;;;1.57;99.86;98376.87;1625158;86;26211;-79
2021/11/29 06:06:44;;;;;;;23.22;14.70;;;;;;;1.54;99.64;98374.09;1590917;86;28121;-79
2021/11/29 06:09:11;;;;;;;22.32;14.85;;;;;;;1.52;99.77;98372.14;1636848;86;26629;-79
2021/11/29 06:11:38;;;;;;;24.18;15.20;;;;;;;1.51;99.65;98367.06;1551982;87;26005;-79
2021/11/29 06:14:06;;;;;;;23.02;15.35;;;;;;;1.51;99.73;98360.47;1610137;87;26229;-79
2021/11/29 06:16:33;;;;;;;23.83;15.63;;;;;;;1.49;99.68;98356.70;1610749;86;26298;-78
2021/11/29 06:19:00;;;;;;;24.10;16.05;;;;;;;1.48;99.68;98364.28;1636319;86;27471;-78
2021/11/29 06:21:28;;;;;;;22.62;14.70;;;;;;;1.46;99.74;98370.24;1555091;87;26569;-78
2021/11/29 06:23:55;;;;;;;23.25;14.75;;;;;;;1.47;99.83;98378.98;1600709;86;25943;-79
2021/11/29 06:26:22;;;;;;;23.22;14.85;;;;;;;1.47;99.87;98382.94;1623629;86;26223;-79
2021/11/29 06:28:50;;;;;;;25.52;15.68;;;;;;;1.46;99.76;98389.20;1633781;86;25831;-78
2021/11/29 06:31:17;;;;;;;23.30;15.50;;;;;;;1.43;99.64;98391.70;1579441;86;27586;-78
2021/11/29 06:33:44;;;;;;;19.75;13.85;;;;;;;1.44;99.70;98397.30;1609919;86;26174;-78
2021/11/29 06:36:12;;;;;;;24.82;16.62;;;;;;;1.45;99.75;98405.52;1620277;86;25822;-79
2021/11/29 06:38:40;;;;;;;24.92;15.90;;;;;;;1.47;99.69;98397.45;1642506;86;26774;-79
2021/11/29 06:41:09;;;;;;;26.65;16.30;;;;;;;1.47;99.64;98394.81;1553031;86;25825;-78
2021/11/29 06:43:36;;;;;;;25.17;15.38;;;;;;;1.48;99.80;98399.06;1576045;87;28397;-79
2021/11/29 06:46:03;;;;;;;23.40;14.90;;;;;;;1.48;99.49;98395.94;1597542;87;25905;-79
2021/11/29 06:48:31;;;;;;;26.30;15.85;;;;;;;1.45;99.54;98393.66;1611723;88;25868;-79
2021/11/29 06:50:59;;;;;;;25.75;15.58;;;;;;;1.41;99.55;98384.47;1580014;87;26600;-78
2021/11/29 06:53:26;;;;;;;27.67;16.93;;;;;;;1.41;99.63;98396.34;1593694;88;26406;-78
2021/11/29 06:55:55;;;;;;;25.70;16.40;;;;;;;1.39;99.53;98398.34;1592249;86;28182;-79
2021/11/29 06:58:23;;;;;;;22.13;13.50;;;;;;;1.38;99.61;98398.53;1604403;86;25761;-79
2021/11/29 07:00:51;;;;;;;26.23;15.55;;;;;;;1.38;99.75;98396.72;1613022;86;25983;-79
2021/11/29 07:03:20;;;;;;;27.05;16.40;;;;;;;1.42;99.85;98391.39;1623688;86;26178;-79
2021/11/29 07:05:50;;;;;;;24.02;14.90;;;;;;;1.42;99.69;98390.08;1634451;86;26575;-78
2021/11/29 07:08:18;;;;;;;26.97;15.78;;;;;;;1.42;99.73;98397.99;1629195;86;27597;-79
2021/11/29 07:10:47;;;;;;;24.90;13.80;;;;;;;1.40;99.77;98403.95;1565580;87;25879;-79
2021/11/29 07:13:15;;;;;;;23.73;14.10;;;;;;;1.39;99.77;98414.70;1634299;86;25760;-78
2021/11/29 07:15:43;;;;;;;24.63;15.05;;;;;;;1.37;99.70;98417.98;1616903;87;26166;-79
2021/11/29 07:18:11;;;;;;;23.83;13.65;;;;;;;1.36;99.73;98425.59;1621019;87;25626;-79
2021/11/29 07:20:38;;;;;;;26.82;16.52;;;;;;;1.34;99.83;98429.73;1565030;87;27216;-79
2021/11/29 07:23:05;;;;;;;24.87;13.08;;;;;;;1.35;99.90;98440.59;1605005;87;26642;-78
2021/11/29 07:25:33;;;;;;;23.42;13.70;;;;;;;1.36;99.99;98434.83;1620895;87;25836;-78
2021/11/29 07:28:01;;;;;;;28.50;15.43;;;;;;;1.34;99.79;98443.42;1624528;87;26076;-77
2021/11/29 07:30:29;;;;;;;25.27;14.98;;;;;;;1.33;99.91;98444.41;1573566;87;26294;-78
2021/11/29 07:32:57;;;;;;;28.62;17.35;;;;;;;1.34;99.94;98440.78;1606766;87;27488;-78
2021/11/29 07:35:28;;;;;;;31.70;16.42;;;;;;;1.37;100.00;98442.55;1614622;87;25891;-78
2021/11/29 07:37:56;;;;;;;27.37;15.10;;;;;;;1.38;99.87;98446.84;1602182;87;25991;-79
2021/11/29 07:40:28;;;;;;;28.32;16.32;;;;;;;1.38;99.90;98456.06;1599145;87;26180;-78
2021/11/29 07:43:05;;;;;;;23.65;13.22;;;;;;;1.37;99.90;98450.45;1593944;87;26603;-78
2021/11/29 07:45:34;;;;;;;20.97;10.35;;;;;;;1.40;100.00;98459.34;1587349;88;27435;-79
2021/11/29 07:48:01;;;;;;;30.65;16.27;;;;;;;1.37;99.90;98462.33;1576568;87;25923;-79
2021/11/29 07:50:29;;;;;;;26.45;12.58;;;;;;;1.38;99.98;98467.11;1606277;87;25848;-78
2021/11/29 07:52:56;;;;;;;23.50;12.82;;;;;;;1.38;99.89;98469.75;1590390;87;26097;-79
2021/11/29 07:55:27;;;;;;;27.40;14.90;;;;;;;1.37;99.60;98473.38;1630629;87;25762;-79
2021/11/29 07:57:54;;;;;;;25.40;13.83;;;;;;;1.35;99.62;98465.64;1587782;88;28310;-79
2021/11/29 08:00:25;;;;;;;26.90;14.45;;;;;;;1.34;99.73;98469.80;1568545;88;25880;-79
2021/11/29 08:02:54;;;;;;;;;;;;;;;1.34;99.81;98465.34;1575826;88;25965;-79
2021/11/29 08:05:23;;;;;;;22.17;12.40;;;;;;;1.34;99.85;98465.84;1628586;87;26787;-79
2021/11/29 08:07:53;;;;;;;21.70;11.45;;;;;;;1.32;99.94;98469.98;1598954;88;26065;-79
2021/11/29 08:10:22;;;;;;;26.05;13.35;;;;;;;1.31;99.83;98463.05;1582766;86;27545;-79
2021/11/29 08:12:50;;;;;;;23.38;13.15;;;;;;;1.31;99.87;98473.61;1632040;86;25688;-79
2021/11/29 08:15:17;;;;;;;23.30;14.07;;;;;;;1.35;99.97;98478.01;1632486;86;25882;-78
2021/11/29 08:17:44;;;;;;;20.62;12.05;;;;;;;1.37;99.88;98479.96;1595048;86;26176;-78
2021/11/29 08:20:13;;;;;;;24.90;13.93;;;;;;;1.38;99.73;98485.58;1577897;86;26679;-79
2021/11/29 08:22:40;;;;;;;21.42;11.90;;;;;;;1.38;99.82;98481.62;1629979;86;27532;-79
2021/11/29 08:25:08;;;;;;;19.70;10.72;;;;;;;1.41;99.89;98491.82;1639411;86;26700;-79
2021/11/29 08:27:36;;;;;;;23.32;12.47;;;;;;;1.43;99.75;98488.50;1564197;87;26564;-79
2021/11/29 08:30:08;;;;;;;20.85;11.60;;;;;;;1.40;99.54;98489.67;1607026;87;26202;-79
2021/11/29 08:32:35;;;;;;;22.85;12.25;;;;;;;1.39;99.54;98486.70;1630249;87;25794;-78
2021/11/29 08:35:04;;;;;;;23.32;13.28;;;;;;;1.43;99.80;98491.14;1628299;86;27638;-78
2021/11/29 08:37:31;;;;;;;18.75;11.35;;;;;;;1.45;99.74;98491.25;1560681;87;26441;-78
2021/11/29 08:39:58;;;;;;;21.93;11.97;;;;;;;1.47;99.84;98489.77;1625245;87;25987;-79
2021/11/29 08:42:25;;;;;;;26.02;14.40;;;;;;;1.47;99.87;98499.01;1623507;87;27351;-78
2021/11/29 08:44:52;;;;;;;24.40;12.25;;;;;;;1.50;99.82;98497.31;1628891;87;25957;-79
2021/11/29 08:47:20;;;;;;;25.52;13.32;;;;;;;1.49;99.73;98488.60;1546888;88;27638;-79
2021/11/29 08:49:46;;;;;;;21.35;12.10;;;;;;;1.49;99.63;98493.88;1592965;88;26112;-78
2021/11/29 08:52:14;;;;;;;19.20;12.25;;;;;;;1.50;99.59;98490.22;1606872;88;25895;-79
2021/11/29 08:54:41;;;;;;;26.15;12.93;;;;;;;1.50;99.59;98488.91;1602799;88;26953;-78
2021/11/29 08:57:09;;;;;;;20.90;11.55;;;;;;;1.51;99.64;98491.05;1579153;86;25864;-79
2021/11/29 08:59:37;;;;;;;22.70;12.25;;;;;;;1.51;99.58;98485.77;1577027;86;27304;-79
2021/11/29 09:02:05;;;;;;;20.92;12.35;;;;;;;1.50;99.53;98483.63;1616740;87;25993;-78
2021/11/29 09:04:33;;;;;;;18.60;10.85;;;;;;;1.53;99.64;98483.77;1622326;87;25818;-79
2021/11/29 09:07:00;;;;;;;25.17;13.83;;;;;;;1.55;99.51;98485.23;1594948;87;26159;-78
2021/11/29 09:09:31;;;;;;;21.33;12.18;;;;;;;1.55;99.31;98476.00;1569605;87;25917;-78
2021/11/29 09:11:55;;;;;;;22.62;12.53;;;;;;;1.53;99.42;98478.50;1627402;86;28386;-78
2021/11/29 09:14:22;;;;;;;22.13;12.75;;;;;;;1.54;99.45;98478.30;1592779;88;25883;-78
2021/11/29 09:16:50;;;;;;;20.43;11.68;;;;;;;1.56;99.36;98485.54;1586682;87;26130;-78
2021/11/29 09:19:17;;;;;;;19.40;11.88;;;;;;;1.58;99.23;98474.83;1543335;88;26543;-78
2021/11/29 09:21:44;;;;;;;15.90;9.53;;;;;;;1.56;99.21;98466.27;1611231;87;26504;-78
2021/11/29 09:24:11;;;;;;;22.30;13.18;;;;;;;1.58;99.25;98469.55;1636246;86;28316;-79
2021/11/29 09:26:38;;;;;;;17.50;10.63;;;;;;;1.59;99.31;98472.48;1566480;86;26625;-79
2021/11/29 09:29:05;;;;;;;20.57;11.88;;;;;;;1.62;99.21;98480.55;1576400;87;26001;-78
2021/11/29 09:31:32;;;;;;;20.60;11.15;;;;;;;1.61;99.07;98477.58;1630826;86;26196;-79
2021/11/29 09:33:59;;;;;;;19.15;12.00;;;;;;;1.64;99.25;98480.69;1636585;86;25761;-79
2021/11/29 09:36:26;;;;;;;20.12;12.10;;;;;;;1.66;99.31;98481.33;1588159;86;27574;-79
2021/11/29 09:38:53;;;;;;;19.67;10.90;;;;;;;1.68;99.08;98485.92;1593394;87;26773;-78
2021/11/29 09:41:24;;;;;;;19.60;11.83;;;;;;;1.69;99.03;98486.75;1633513;86;25768;-78
2021/11/29 09:43:49;;;;;;;18.98;11.05;;;;;;;1.69;99.03;98485.42;1635751;86;26283;-79
2021/11/29 09:46:16;;;;;;;19.65;10.82;;;;;;;1.68;98.99;98476.69;1584020;86;25446;-78
2021/11/29 09:48:44;;;;;;;22.05;12.55;;;;;;;1.68;99.03;98470.09;1575677;86;27474;-79
2021/11/29 09:51:11;;;;;;;21.15;12.70;;;;;;;1.69;99.06;98470.91;1614604;86;25880;-79
2021/11/29 09:53:38;;;;;;;23.65;12.60;;;;;;;1.68;98.92;98468.77;1629726;86;26576;-79
2021/11/29 09:56:05;;;;;;;16.50;10.25;;;;;;;1.67;98.65;98468.96;1584884;87;26169;-78
2021/11/29 09:58:32;;;;;;;19.10;10.60;;;;;;;1.66;98.76;98463.34;1573489;86;25869;-78
2021/11/29 10:01:03;;;;;;;17.90;10.90;;;;;;;1.65;98.94;98462.52;1629876;86;27473;-79
2021/11/29 10:03:30;;;;;;;20.57;11.12;;;;;;;1.66;99.04;98458.07;1637045;86;26580;-79
2021/11/29 10:05:58;;;;;;;17.57;11.08;;;;;;;1.66;98.98;98458.07;1586982;87;26071;-79
2021/11/29 10:08:35;;;;;;;20.17;10.63;;;;;;;1.68;99.00;98462.17;1592903;87;25913;-79
2021/11/29 10:11:06;;;;;;;20.60;11.40;;;;;;;1.68;98.93;98462.17;1637872;86;26259;-79
2021/11/29 10:13:53;;;;;;;18.12;10.70;;;;;;;1.68;98.97;98463.48;1631515;86;27561;-78
2021/11/29 10:16:43;;;;;;;21.65;11.50;;;;;;;1.71;99.02;98465.75;1609965;86;25897;-78
2021/11/29 10:19:22;;;;;;;19.70;11.47;;;;;;;1.71;99.05;98461.78;1606146;86;25944;-78
2021/11/29 10:21:50;;;;;;;19.42;10.72;;;;;;;1.72;99.03;98456.84;1633327;86;26745;-79
2021/11/29 10:24:19;;;;;;;18.55;10.72;;;;;;;1.73;99.12;98458.49;1640089;86;25747;-79
2021/11/29 10:26:52;;;;;;;20.75;10.75;;;;;;;1.73;99.11;98462.95;1601473;87;27570;-79
2021/11/29 10:29:25;;;;;;;19.32;11.68;;;;;;;1.75;99.13;98459.13;1600317;86;25791;-78
2021/11/29 10:31:55;;;;;;;17.12;10.08;;;;;;;1.76;99.18;98458.60;1628391;86;26766;-79
2021/11/29 10:34:32;;;;;;;17.43;10.30;;;;;;;1.77;99.23;98456.30;1635740;86;26331;-78
2021/11/29 10:37:03;;;;;;;16.37;9.90;;;;;;;1.79;99.30;98451.16;1570492;87;26337;-79
2021/11/29 10:39:35;;;;;;;15.90;10.10;;;;;;;1.81;99.24;98454.43;1579885;87;27400;-78
2021/11/29 10:42:10;;;;;;;17.70;11.20;;;;;;;1.82;99.09;98450.77;1616217;87;25834;-78
2021/11/29 10:44:41;;;;;;;17.40;10.18;;;;;;;1.82;99.17;98445.50;1621565;87;25735;-78
2021/11/29 10:47:16;;;;;;;13.95;8.15;;;;;;;1.87;99.24;98448.41;1603606;87;26112;-79
2021/11/29 10:49:47;;;;;;;14.90;10.93;;;;;;;1.91;99.22;98451.49;1601906;87;25863;-79
2021/11/29 10:52:24;;;;;;;15.28;9.55;;;;;;;1.89;99.04;98440.30;1616270;87;27619;-78
2021/11/29 10:54:54;;;;;;;18.10;11.30;;;;;;;1.88;98.95;98438.16;1634215;87;25339;-78
2021/11/29 10:57:22;;;;;;;17.87;11.48;;;;;;;1.90;99.19;98437.50;1568837;87;25957;-79
2021/11/29 10:59:54;;;;;;;18.48;12.15;;;;;;;1.93;99.28;98445.52;1567270;87;25904;-78
2021/11/29 11:02:25;;;;;;;18.05;10.20;;;;;;;1.95;99.32;98444.34;1606442;88;25886;-78
2021/11/29 11:05:12;;;;;;;18.73;11.65;;;;;;;1.96;99.20;98445.17;1619309;87;27630;-78
2021/11/29 11:07:40;;;;;;;27.13;16.48;;;;;;;1.98;99.21;98447.95;1577896;87;26516;-78
2021/11/29 11:10:14;;;;;;;18.00;10.93;;;;;;;2.00;99.31;98451.22;1597683;85;25540;-78
2021/11/29 11:12:41;;;;;;;18.15;12.00;;;;;;;2.02;99.07;98447.06;1614158;87;25888;-79
2021/11/29 11:15:12;;;;;;;20.82;12.70;;;;;;;2.01;99.15;98450.20;1575431;87;26148;-78
2021/11/29 11:17:40;;;;;;;17.42;11.38;;;;;;;2.04;99.40;98448.52;1576584;87;28135;-79
2021/11/29 11:20:13;;;;;;;19.10;12.90;;;;;;;2.07;99.33;98444.20;1633394;87;26049;-78
2021/11/29 11:22:47;;;;;;;21.90;14.45;;;;;;;2.11;99.35;98449.92;1591192;88;25978;-78
2021/11/29 11:25:26;;;;;;;21.97;13.55;;;;;;;2.12;99.29;98446.27;1579295;89;26865;-79
2021/11/29 11:28:08;;;;;;;22.52;13.78;;;;;;;2.13;99.33;98445.27;1614797;87;25928;-79
2021/11/29 11:30:43;;;;;;;22.87;13.68;;;;;;;2.13;99.44;98447.42;1605593;88;28329;-79